sensor_id;sensor_type;location;lat;lon;timestamp;P1;durP1;ratioP1;P2;durP2;ratioP2
24713;SDS011;12820;51.580;5.010;2023-01-26T00:04:29;117.80;;;37.95;;
24713;SDS011;12820;51.580;5.010;2023-01-26T00:09:31;110.65;;;37.20;;
24713;SDS011;12820;51.580;5.010;2023-01-26T00:14:34;114.70;;;37.78;;
24713;SDS011;12820;51.580;5.010;2023-01-26T00:19:51;108.22;;;36.83;;
24713;SDS011;12820;51.580;5.010;2023-01-26T00:24:55;112.07;;;37.70;;
24713;SDS011;12820;51.580;5.010;2023-01-26T00:29:58;115.40;;;38.35;;
24713;SDS011;12820;51.580;5.010;2023-01-26T00:35:00;119.82;;;37.40;;
24713;SDS011;12820;51.580;5.010;2023-01-26T00:40:02;107.35;;;37.75;;
24713;SDS011;12820;51.580;5.010;2023-01-26T00:45:05;104.68;;;35.00;;
24713;SDS011;12820;51.580;5.010;2023-01-26T00:50:08;112.20;;;36.60;;
24713;SDS011;12820;51.580;5.010;2023-01-26T00:55:11;105.60;;;35.25;;
24713;SDS011;12820;51.580;5.010;2023-01-26T01:00:18;95.95;;;33.25;;
24713;SDS011;12820;51.580;5.010;2023-01-26T01:05:21;103.55;;;35.03;;
24713;SDS011;12820;51.580;5.010;2023-01-26T01:10:24;97.47;;;34.38;;
24713;SDS011;12820;51.580;5.010;2023-01-26T01:15:28;97.90;;;34.05;;
24713;SDS011;12820;51.580;5.010;2023-01-26T01:20:30;105.88;;;34.35;;
24713;SDS011;12820;51.580;5.010;2023-01-26T01:25:32;104.18;;;34.50;;
24713;SDS011;12820;51.580;5.010;2023-01-26T01:30:36;85.97;;;31.52;;
24713;SDS011;12820;51.580;5.010;2023-01-26T01:35:38;99.18;;;34.00;;
24713;SDS011;12820;51.580;5.010;2023-01-26T01:40:43;101.40;;;32.67;;
24713;SDS011;12820;51.580;5.010;2023-01-26T01:45:46;92.47;;;33.30;;
24713;SDS011;12820;51.580;5.010;2023-01-26T01:50:50;99.47;;;32.60;;
24713;SDS011;12820;51.580;5.010;2023-01-26T01:55:58;93.43;;;32.50;;
24713;SDS011;12820;51.580;5.010;2023-01-26T02:01:04;100.78;;;30.98;;
24713;SDS011;12820;51.580;5.010;2023-01-26T02:06:11;89.90;;;30.10;;
24713;SDS011;12820;51.580;5.010;2023-01-26T02:11:16;94.95;;;31.17;;
24713;SDS011;12820;51.580;5.010;2023-01-26T02:16:28;89.90;;;29.80;;
24713;SDS011;12820;51.580;5.010;2023-01-26T02:21:30;86.22;;;29.08;;
24713;SDS011;12820;51.580;5.010;2023-01-26T02:26:34;85.25;;;30.02;;
24713;SDS011;12820;51.580;5.010;2023-01-26T02:31:38;92.85;;;28.90;;
24713;SDS011;12820;51.580;5.010;2023-01-26T02:36:41;85.80;;;30.17;;
24713;SDS011;12820;51.580;5.010;2023-01-26T02:41:44;89.90;;;28.67;;
24713;SDS011;12820;51.580;5.010;2023-01-26T02:47:14;83.53;;;28.58;;
24713;SDS011;12820;51.580;5.010;2023-01-26T02:52:21;87.63;;;28.67;;
24713;SDS011;12820;51.580;5.010;2023-01-26T02:57:37;80.95;;;27.27;;
24713;SDS011;12820;51.580;5.010;2023-01-26T03:02:40;84.47;;;28.20;;
24713;SDS011;12820;51.580;5.010;2023-01-26T03:07:43;85.97;;;26.55;;
24713;SDS011;12820;51.580;5.010;2023-01-26T03:12:45;76.72;;;25.98;;
24713;SDS011;12820;51.580;5.010;2023-01-26T03:17:48;79.68;;;24.98;;
24713;SDS011;12820;51.580;5.010;2023-01-26T03:22:51;77.22;;;24.90;;
24713;SDS011;12820;51.580;5.010;2023-01-26T03:28:14;81.40;;;24.85;;
24713;SDS011;12820;51.580;5.010;2023-01-26T03:33:16;73.30;;;24.83;;
24713;SDS011;12820;51.580;5.010;2023-01-26T03:38:20;71.63;;;23.95;;
24713;SDS011;12820;51.580;5.010;2023-01-26T03:43:26;77.65;;;24.77;;
24713;SDS011;12820;51.580;5.010;2023-01-26T03:48:47;77.55;;;25.27;;
24713;SDS011;12820;51.580;5.010;2023-01-26T03:54:08;75.80;;;24.00;;
24713;SDS011;12820;51.580;5.010;2023-01-26T04:04:49;64.90;;;22.23;;
24713;SDS011;12820;51.580;5.010;2023-01-26T04:10:12;65.90;;;22.63;;
24713;SDS011;12820;51.580;5.010;2023-01-26T04:15:16;72.22;;;23.05;;
24713;SDS011;12820;51.580;5.010;2023-01-26T04:20:37;67.32;;;22.48;;
24713;SDS011;12820;51.580;5.010;2023-01-26T04:31:00;68.22;;;21.23;;
24713;SDS011;12820;51.580;5.010;2023-01-26T04:36:07;69.88;;;21.52;;
24713;SDS011;12820;51.580;5.010;2023-01-26T04:41:14;60.38;;;19.65;;
24713;SDS011;12820;51.580;5.010;2023-01-26T04:46:21;64.82;;;20.58;;
24713;SDS011;12820;51.580;5.010;2023-01-26T04:51:23;59.70;;;19.63;;
24713;SDS011;12820;51.580;5.010;2023-01-26T04:56:30;61.78;;;20.50;;
24713;SDS011;12820;51.580;5.010;2023-01-26T05:01:34;59.72;;;19.88;;
24713;SDS011;12820;51.580;5.010;2023-01-26T05:06:39;53.05;;;17.83;;
24713;SDS011;12820;51.580;5.010;2023-01-26T05:11:44;61.05;;;19.33;;
24713;SDS011;12820;51.580;5.010;2023-01-26T05:16:49;57.85;;;18.65;;
24713;SDS011;12820;51.580;5.010;2023-01-26T05:22:29;50.70;;;18.15;;
24713;SDS011;12820;51.580;5.010;2023-01-26T05:27:57;56.72;;;17.98;;
24713;SDS011;12820;51.580;5.010;2023-01-26T05:33:00;49.58;;;17.30;;
24713;SDS011;12820;51.580;5.010;2023-01-26T05:38:07;53.22;;;17.92;;
24713;SDS011;12820;51.580;5.010;2023-01-26T05:43:10;51.10;;;17.35;;
24713;SDS011;12820;51.580;5.010;2023-01-26T05:48:20;51.17;;;17.35;;
24713;SDS011;12820;51.580;5.010;2023-01-26T05:53:25;44.50;;;16.02;;
24713;SDS011;12820;51.580;5.010;2023-01-26T05:58:28;46.47;;;16.20;;
24713;SDS011;12820;51.580;5.010;2023-01-26T06:03:30;51.58;;;17.25;;
24713;SDS011;12820;51.580;5.010;2023-01-26T06:08:33;44.63;;;16.45;;
24713;SDS011;12820;51.580;5.010;2023-01-26T06:14:10;44.92;;;16.00;;
24713;SDS011;12820;51.580;5.010;2023-01-26T06:19:13;45.67;;;15.95;;
24713;SDS011;12820;51.580;5.010;2023-01-26T06:24:19;45.08;;;15.70;;
24713;SDS011;12820;51.580;5.010;2023-01-26T06:29:21;42.60;;;14.52;;
24713;SDS011;12820;51.580;5.010;2023-01-26T06:34:26;46.85;;;15.32;;
24713;SDS011;12820;51.580;5.010;2023-01-26T06:39:28;42.38;;;15.45;;
24713;SDS011;12820;51.580;5.010;2023-01-26T06:44:32;44.20;;;16.33;;
24713;SDS011;12820;51.580;5.010;2023-01-26T06:49:34;48.92;;;15.88;;
24713;SDS011;12820;51.580;5.010;2023-01-26T06:54:37;52.65;;;15.88;;
24713;SDS011;12820;51.580;5.010;2023-01-26T06:59:55;43.80;;;16.67;;
24713;SDS011;12820;51.580;5.010;2023-01-26T07:05:07;52.45;;;16.50;;
24713;SDS011;12820;51.580;5.010;2023-01-26T07:10:11;49.55;;;17.48;;
24713;SDS011;12820;51.580;5.010;2023-01-26T07:15:13;52.03;;;16.15;;
24713;SDS011;12820;51.580;5.010;2023-01-26T07:20:16;46.42;;;17.00;;
24713;SDS011;12820;51.580;5.010;2023-01-26T07:25:18;46.53;;;15.73;;
24713;SDS011;12820;51.580;5.010;2023-01-26T07:30:20;51.53;;;16.60;;
24713;SDS011;12820;51.580;5.010;2023-01-26T07:35:22;47.33;;;16.67;;
24713;SDS011;12820;51.580;5.010;2023-01-26T07:40:24;53.50;;;16.48;;
24713;SDS011;12820;51.580;5.010;2023-01-26T07:45:26;47.22;;;15.27;;
24713;SDS011;12820;51.580;5.010;2023-01-26T07:50:29;44.40;;;14.90;;
24713;SDS011;12820;51.580;5.010;2023-01-26T07:55:31;46.20;;;16.88;;
24713;SDS011;12820;51.580;5.010;2023-01-26T08:00:33;48.35;;;16.65;;
24713;SDS011;12820;51.580;5.010;2023-01-26T08:05:36;48.80;;;17.20;;
24713;SDS011;12820;51.580;5.010;2023-01-26T08:10:39;47.15;;;16.38;;
24713;SDS011;12820;51.580;5.010;2023-01-26T08:15:41;52.05;;;16.67;;
24713;SDS011;12820;51.580;5.010;2023-01-26T08:20:53;51.05;;;16.90;;
24713;SDS011;12820;51.580;5.010;2023-01-26T08:26:02;45.38;;;17.30;;
24713;SDS011;12820;51.580;5.010;2023-01-26T08:31:13;54.00;;;18.45;;
24713;SDS011;12820;51.580;5.010;2023-01-26T08:36:21;61.17;;;19.35;;
24713;SDS011;12820;51.580;5.010;2023-01-26T08:41:24;65.90;;;19.35;;
24713;SDS011;12820;51.580;5.010;2023-01-26T08:46:26;61.22;;;19.05;;
24713;SDS011;12820;51.580;5.010;2023-01-26T08:51:28;63.55;;;20.30;;
24713;SDS011;12820;51.580;5.010;2023-01-26T08:56:30;64.15;;;19.85;;
24713;SDS011;12820;51.580;5.010;2023-01-26T09:01:32;72.90;;;21.15;;
24713;SDS011;12820;51.580;5.010;2023-01-26T09:06:34;66.50;;;20.48;;
24713;SDS011;12820;51.580;5.010;2023-01-26T09:11:36;77.82;;;21.55;;
24713;SDS011;12820;51.580;5.010;2023-01-26T09:16:38;82.93;;;21.73;;
24713;SDS011;12820;51.580;5.010;2023-01-26T09:21:40;80.50;;;23.27;;
24713;SDS011;12820;51.580;5.010;2023-01-26T09:26:43;77.25;;;22.08;;
24713;SDS011;12820;51.580;5.010;2023-01-26T09:31:45;78.68;;;23.10;;
24713;SDS011;12820;51.580;5.010;2023-01-26T09:36:47;80.60;;;24.05;;
24713;SDS011;12820;51.580;5.010;2023-01-26T09:47:32;77.40;;;23.35;;
24713;SDS011;12820;51.580;5.010;2023-01-26T09:58:12;72.45;;;21.85;;
24713;SDS011;12820;51.580;5.010;2023-01-26T10:03:26;75.55;;;20.83;;
24713;SDS011;12820;51.580;5.010;2023-01-26T10:08:34;77.35;;;21.33;;
24713;SDS011;12820;51.580;5.010;2023-01-26T10:13:36;71.07;;;19.88;;
24713;SDS011;12820;51.580;5.010;2023-01-26T10:23:54;64.03;;;19.33;;
24713;SDS011;12820;51.580;5.010;2023-01-26T10:29:00;66.15;;;18.83;;
24713;SDS011;12820;51.580;5.010;2023-01-26T10:34:13;74.22;;;19.17;;
24713;SDS011;12820;51.580;5.010;2023-01-26T10:39:16;52.15;;;16.00;;
24713;SDS011;12820;51.580;5.010;2023-01-26T10:44:23;45.10;;;14.68;;
24713;SDS011;12820;51.580;5.010;2023-01-26T10:49:32;50.03;;;14.25;;
24713;SDS011;12820;51.580;5.010;2023-01-26T10:54:34;55.83;;;14.68;;
24713;SDS011;12820;51.580;5.010;2023-01-26T10:59:48;49.55;;;12.63;;
24713;SDS011;12820;51.580;5.010;2023-01-26T11:05:03;48.35;;;12.57;;
24713;SDS011;12820;51.580;5.010;2023-01-26T11:10:24;42.13;;;11.20;;
24713;SDS011;12820;51.580;5.010;2023-01-26T11:15:26;41.55;;;10.95;;
24713;SDS011;12820;51.580;5.010;2023-01-26T11:25:58;40.55;;;10.15;;
24713;SDS011;12820;51.580;5.010;2023-01-26T11:31:21;39.80;;;10.52;;
24713;SDS011;12820;51.580;5.010;2023-01-26T11:36:37;33.63;;;8.75;;
24713;SDS011;12820;51.580;5.010;2023-01-26T11:42:18;34.25;;;7.47;;
24713;SDS011;12820;51.580;5.010;2023-01-26T12:03:03;22.53;;;3.10;;
24713;SDS011;12820;51.580;5.010;2023-01-26T12:13:39;19.48;;;3.05;;
24713;SDS011;12820;51.580;5.010;2023-01-26T12:24:40;24.73;;;3.37;;
24713;SDS011;12820;51.580;5.010;2023-01-26T12:35:42;20.02;;;3.22;;
24713;SDS011;12820;51.580;5.010;2023-01-26T12:41:12;19.45;;;3.58;;
24713;SDS011;12820;51.580;5.010;2023-01-26T12:46:15;16.98;;;3.55;;
24713;SDS011;12820;51.580;5.010;2023-01-26T12:51:23;23.55;;;3.30;;
24713;SDS011;12820;51.580;5.010;2023-01-26T13:01:37;19.60;;;2.90;;
24713;SDS011;12820;51.580;5.010;2023-01-26T13:06:42;19.63;;;3.17;;
24713;SDS011;12820;51.580;5.010;2023-01-26T13:11:48;25.15;;;2.88;;
24713;SDS011;12820;51.580;5.010;2023-01-26T13:16:54;18.87;;;2.80;;
24713;SDS011;12820;51.580;5.010;2023-01-26T13:21:57;22.73;;;2.80;;
24713;SDS011;12820;51.580;5.010;2023-01-26T13:26:59;19.58;;;2.90;;
24713;SDS011;12820;51.580;5.010;2023-01-26T13:37:13;23.90;;;2.70;;
24713;SDS011;12820;51.580;5.010;2023-01-26T13:42:24;15.90;;;2.92;;
24713;SDS011;12820;51.580;5.010;2023-01-26T13:47:36;29.77;;;2.60;;
24713;SDS011;12820;51.580;5.010;2023-01-26T13:52:43;18.65;;;2.75;;
24713;SDS011;12820;51.580;5.010;2023-01-26T13:57:45;16.92;;;2.72;;
24713;SDS011;12820;51.580;5.010;2023-01-26T14:02:50;21.02;;;2.58;;
24713;SDS011;12820;51.580;5.010;2023-01-26T14:07:52;17.35;;;2.40;;
24713;SDS011;12820;51.580;5.010;2023-01-26T14:12:54;15.63;;;2.28;;
24713;SDS011;12820;51.580;5.010;2023-01-26T14:17:58;13.82;;;2.40;;
24713;SDS011;12820;51.580;5.010;2023-01-26T14:28:15;16.20;;;2.55;;
24713;SDS011;12820;51.580;5.010;2023-01-26T14:33:20;20.13;;;2.88;;
24713;SDS011;12820;51.580;5.010;2023-01-26T14:38:24;13.27;;;1.92;;
24713;SDS011;12820;51.580;5.010;2023-01-26T14:43:33;12.13;;;1.70;;
24713;SDS011;12820;51.580;5.010;2023-01-26T14:48:36;23.38;;;2.20;;
24713;SDS011;12820;51.580;5.010;2023-01-26T14:53:53;14.88;;;1.88;;
24713;SDS011;12820;51.580;5.010;2023-01-26T14:58:57;16.52;;;1.83;;
24713;SDS011;12820;51.580;5.010;2023-01-26T15:04:09;12.98;;;1.90;;
24713;SDS011;12820;51.580;5.010;2023-01-26T15:09:37;17.83;;;2.10;;
24713;SDS011;12820;51.580;5.010;2023-01-26T15:19:47;11.52;;;1.75;;
24713;SDS011;12820;51.580;5.010;2023-01-26T15:24:59;10.82;;;1.58;;
24713;SDS011;12820;51.580;5.010;2023-01-26T15:30:22;13.63;;;1.63;;
24713;SDS011;12820;51.580;5.010;2023-01-26T15:35:35;6.55;;;1.30;;
24713;SDS011;12820;51.580;5.010;2023-01-26T15:40:37;14.13;;;2.17;;
24713;SDS011;12820;51.580;5.010;2023-01-26T15:45:40;15.40;;;1.80;;
24713;SDS011;12820;51.580;5.010;2023-01-26T15:50:47;12.90;;;1.63;;
24713;SDS011;12820;51.580;5.010;2023-01-26T15:55:50;13.20;;;1.80;;
24713;SDS011;12820;51.580;5.010;2023-01-26T16:00:57;13.25;;;1.60;;
24713;SDS011;12820;51.580;5.010;2023-01-26T16:05:59;12.35;;;1.80;;
24713;SDS011;12820;51.580;5.010;2023-01-26T16:11:01;17.35;;;2.40;;
24713;SDS011;12820;51.580;5.010;2023-01-26T16:16:03;14.85;;;2.00;;
24713;SDS011;12820;51.580;5.010;2023-01-26T16:21:21;16.20;;;2.53;;
24713;SDS011;12820;51.580;5.010;2023-01-26T16:26:26;13.75;;;2.50;;
24713;SDS011;12820;51.580;5.010;2023-01-26T16:31:29;11.02;;;1.92;;
24713;SDS011;12820;51.580;5.010;2023-01-26T16:36:33;12.68;;;1.70;;
24713;SDS011;12820;51.580;5.010;2023-01-26T16:41:35;11.90;;;1.85;;
24713;SDS011;12820;51.580;5.010;2023-01-26T16:46:37;16.02;;;2.30;;
24713;SDS011;12820;51.580;5.010;2023-01-26T16:51:40;12.05;;;1.90;;
24713;SDS011;12820;51.580;5.010;2023-01-26T16:56:44;10.55;;;1.42;;
24713;SDS011;12820;51.580;5.010;2023-01-26T17:01:47;9.93;;;1.15;;
24713;SDS011;12820;51.580;5.010;2023-01-26T17:06:49;10.10;;;1.63;;
24713;SDS011;12820;51.580;5.010;2023-01-26T17:11:52;8.60;;;1.45;;
24713;SDS011;12820;51.580;5.010;2023-01-26T17:16:54;10.35;;;1.10;;
24713;SDS011;12820;51.580;5.010;2023-01-26T17:21:56;16.33;;;1.63;;
24713;SDS011;12820;51.580;5.010;2023-01-26T17:26:58;10.55;;;1.35;;
24713;SDS011;12820;51.580;5.010;2023-01-26T17:32:01;12.88;;;1.33;;
24713;SDS011;12820;51.580;5.010;2023-01-26T17:37:03;12.23;;;1.85;;
24713;SDS011;12820;51.580;5.010;2023-01-26T17:42:05;11.40;;;1.50;;
24713;SDS011;12820;51.580;5.010;2023-01-26T17:47:07;11.63;;;1.35;;
24713;SDS011;12820;51.580;5.010;2023-01-26T17:52:12;14.80;;;1.50;;
24713;SDS011;12820;51.580;5.010;2023-01-26T17:57:15;14.18;;;1.70;;
24713;SDS011;12820;51.580;5.010;2023-01-26T18:02:17;17.17;;;1.98;;
24713;SDS011;12820;51.580;5.010;2023-01-26T18:07:19;14.48;;;1.95;;
24713;SDS011;12820;51.580;5.010;2023-01-26T18:12:21;15.40;;;1.90;;
24713;SDS011;12820;51.580;5.010;2023-01-26T18:17:23;15.40;;;1.65;;
24713;SDS011;12820;51.580;5.010;2023-01-26T18:22:26;9.45;;;1.88;;
24713;SDS011;12820;51.580;5.010;2023-01-26T18:27:28;12.90;;;1.83;;
24713;SDS011;12820;51.580;5.010;2023-01-26T18:32:30;10.48;;;1.65;;
24713;SDS011;12820;51.580;5.010;2023-01-26T18:37:33;13.25;;;2.80;;
24713;SDS011;12820;51.580;5.010;2023-01-26T18:42:35;9.00;;;1.70;;
24713;SDS011;12820;51.580;5.010;2023-01-26T18:47:37;12.25;;;1.85;;
24713;SDS011;12820;51.580;5.010;2023-01-26T18:52:39;15.55;;;1.75;;
24713;SDS011;12820;51.580;5.010;2023-01-26T18:57:41;12.10;;;2.00;;
24713;SDS011;12820;51.580;5.010;2023-01-26T19:02:43;13.57;;;2.00;;
24713;SDS011;12820;51.580;5.010;2023-01-26T19:07:45;14.68;;;1.75;;
24713;SDS011;12820;51.580;5.010;2023-01-26T19:12:48;10.85;;;2.05;;
24713;SDS011;12820;51.580;5.010;2023-01-26T19:17:50;9.40;;;1.67;;
24713;SDS011;12820;51.580;5.010;2023-01-26T19:22:53;16.08;;;2.00;;
24713;SDS011;12820;51.580;5.010;2023-01-26T19:27:56;13.43;;;1.92;;
24713;SDS011;12820;51.580;5.010;2023-01-26T19:32:58;13.73;;;2.00;;
24713;SDS011;12820;51.580;5.010;2023-01-26T19:38:19;16.80;;;2.57;;
24713;SDS011;12820;51.580;5.010;2023-01-26T19:43:21;18.92;;;2.92;;
24713;SDS011;12820;51.580;5.010;2023-01-26T19:48:25;16.58;;;2.13;;
24713;SDS011;12820;51.580;5.010;2023-01-26T19:53:31;15.80;;;2.15;;
24713;SDS011;12820;51.580;5.010;2023-01-26T19:58:34;17.75;;;2.35;;
24713;SDS011;12820;51.580;5.010;2023-01-26T20:03:37;17.13;;;1.98;;
24713;SDS011;12820;51.580;5.010;2023-01-26T20:08:40;17.75;;;2.17;;
24713;SDS011;12820;51.580;5.010;2023-01-26T20:13:42;18.30;;;2.03;;
24713;SDS011;12820;51.580;5.010;2023-01-26T20:18:45;16.65;;;2.15;;
24713;SDS011;12820;51.580;5.010;2023-01-26T20:23:47;21.15;;;2.28;;
24713;SDS011;12820;51.580;5.010;2023-01-26T20:28:56;19.58;;;2.05;;
24713;SDS011;12820;51.580;5.010;2023-01-26T20:33:59;22.30;;;2.60;;
24713;SDS011;12820;51.580;5.010;2023-01-26T20:39:03;11.00;;;1.73;;
24713;SDS011;12820;51.580;5.010;2023-01-26T20:44:06;15.20;;;2.35;;
24713;SDS011;12820;51.580;5.010;2023-01-26T20:49:09;19.75;;;2.20;;
24713;SDS011;12820;51.580;5.010;2023-01-26T20:54:14;14.90;;;2.10;;
24713;SDS011;12820;51.580;5.010;2023-01-26T20:59:17;16.45;;;2.10;;
24713;SDS011;12820;51.580;5.010;2023-01-26T21:04:19;12.77;;;2.15;;
24713;SDS011;12820;51.580;5.010;2023-01-26T21:09:22;13.25;;;2.17;;
24713;SDS011;12820;51.580;5.010;2023-01-26T21:14:24;17.67;;;2.53;;
24713;SDS011;12820;51.580;5.010;2023-01-26T21:19:26;17.55;;;2.20;;
24713;SDS011;12820;51.580;5.010;2023-01-26T21:24:29;16.65;;;2.35;;
24713;SDS011;12820;51.580;5.010;2023-01-26T21:29:31;14.98;;;2.10;;
24713;SDS011;12820;51.580;5.010;2023-01-26T21:34:33;19.73;;;2.00;;
24713;SDS011;12820;51.580;5.010;2023-01-26T21:39:35;19.42;;;2.47;;
24713;SDS011;12820;51.580;5.010;2023-01-26T21:44:37;18.25;;;2.65;;
24713;SDS011;12820;51.580;5.010;2023-01-26T21:49:59;22.67;;;3.00;;
24713;SDS011;12820;51.580;5.010;2023-01-26T21:55:01;20.10;;;2.22;;
24713;SDS011;12820;51.580;5.010;2023-01-26T22:00:04;27.92;;;2.92;;
24713;SDS011;12820;51.580;5.010;2023-01-26T22:05:07;25.10;;;2.70;;
24713;SDS011;12820;51.580;5.010;2023-01-26T22:10:09;23.33;;;2.80;;
24713;SDS011;12820;51.580;5.010;2023-01-26T22:15:12;14.73;;;2.50;;
24713;SDS011;12820;51.580;5.010;2023-01-26T22:20:15;16.10;;;1.92;;
24713;SDS011;12820;51.580;5.010;2023-01-26T22:25:17;23.13;;;2.88;;
24713;SDS011;12820;51.580;5.010;2023-01-26T22:30:19;20.63;;;2.67;;
24713;SDS011;12820;51.580;5.010;2023-01-26T22:35:21;20.67;;;2.50;;
24713;SDS011;12820;51.580;5.010;2023-01-26T22:40:23;22.00;;;3.42;;
24713;SDS011;12820;51.580;5.010;2023-01-26T22:45:25;24.90;;;2.80;;
24713;SDS011;12820;51.580;5.010;2023-01-26T22:50:28;23.73;;;2.92;;
24713;SDS011;12820;51.580;5.010;2023-01-26T22:55:30;25.35;;;2.67;;
24713;SDS011;12820;51.580;5.010;2023-01-26T23:00:32;15.25;;;2.95;;
24713;SDS011;12820;51.580;5.010;2023-01-26T23:05:34;18.42;;;2.50;;
24713;SDS011;12820;51.580;5.010;2023-01-26T23:10:36;22.65;;;2.92;;
24713;SDS011;12820;51.580;5.010;2023-01-26T23:15:39;32.03;;;3.42;;
24713;SDS011;12820;51.580;5.010;2023-01-26T23:20:41;17.55;;;2.28;;
24713;SDS011;12820;51.580;5.010;2023-01-26T23:25:44;16.80;;;2.55;;
24713;SDS011;12820;51.580;5.010;2023-01-26T23:30:53;21.38;;;3.15;;
24713;SDS011;12820;51.580;5.010;2023-01-26T23:35:56;18.60;;;2.67;;
24713;SDS011;12820;51.580;5.010;2023-01-26T23:40:59;23.55;;;3.40;;
24713;SDS011;12820;51.580;5.010;2023-01-26T23:46:01;17.13;;;2.70;;
24713;SDS011;12820;51.580;5.010;2023-01-26T23:51:06;21.13;;;2.90;;
24713;SDS011;12820;51.580;5.010;2023-01-26T23:56:14;19.98;;;2.72;;
